createdAt,value
2018-07-13T00:00:09.391Z,0.00
2018-07-13T00:01:09.386Z,0.00
2018-07-13T00:02:09.513Z,0.00
2018-07-13T00:03:09.409Z,0.00
2018-07-13T00:04:09.416Z,0.00
2018-07-13T00:05:09.431Z,0.00
2018-07-13T00:06:09.446Z,0.00
2018-07-13T00:07:09.551Z,0.00
2018-07-13T00:08:09.484Z,0.00
2018-07-13T00:09:09.482Z,0.00
2018-07-13T00:10:09.488Z,0.00
2018-07-13T00:11:09.492Z,0.00
2018-07-13T00:12:09.680Z,0.00
2018-07-13T00:13:09.520Z,0.00
2018-07-13T00:14:09.530Z,0.00
2018-07-13T00:15:09.536Z,0.00
2018-07-13T00:16:09.548Z,0.00
2018-07-13T00:17:09.733Z,0.00
2018-07-13T00:18:09.571Z,0.00
2018-07-13T00:19:09.577Z,0.00
2018-07-13T00:20:09.615Z,0.00
2018-07-13T00:21:09.599Z,0.00
2018-07-13T00:22:09.768Z,0.00
2018-07-13T00:23:09.642Z,0.00
2018-07-13T00:24:09.628Z,0.00
2018-07-13T00:25:09.669Z,0.00
2018-07-13T00:26:09.678Z,0.00
2018-07-13T00:27:09.756Z,0.00
2018-07-13T00:28:09.677Z,0.00
2018-07-13T00:29:09.709Z,0.00
2018-07-13T00:30:09.693Z,0.00
2018-07-13T00:31:09.705Z,0.00
2018-07-13T00:32:09.865Z,0.00
2018-07-13T00:33:09.726Z,0.00
2018-07-13T00:34:09.764Z,0.00
2018-07-13T00:35:09.741Z,0.00
2018-07-13T00:36:09.759Z,0.00
2018-07-13T00:37:09.871Z,0.00
2018-07-13T00:38:09.769Z,0.00
2018-07-13T00:39:09.789Z,0.00
2018-07-13T00:40:09.798Z,0.00
2018-07-13T00:41:09.807Z,0.00
2018-07-13T00:42:09.967Z,0.00
2018-07-13T00:43:09.856Z,0.00
2018-07-13T00:44:09.837Z,0.00
2018-07-13T00:45:09.874Z,0.00
2018-07-13T00:46:09.859Z,0.00
2018-07-13T00:47:10.025Z,0.00
2018-07-13T00:48:09.876Z,0.00
2018-07-13T00:49:09.893Z,0.00
2018-07-13T00:50:09.923Z,0.00
2018-07-13T00:51:09.939Z,0.00
2018-07-13T00:52:10.075Z,0.00
2018-07-13T00:53:09.953Z,0.00
2018-07-13T00:54:09.968Z,0.00
2018-07-13T00:55:09.974Z,0.00
2018-07-13T00:56:09.988Z,0.00
2018-07-13T00:57:10.083Z,0.00
2018-07-13T00:58:10.007Z,0.00
2018-07-13T00:59:10.020Z,0.00
2018-07-13T01:00:10.004Z,0.00
2018-07-13T01:01:10.017Z,0.00
2018-07-13T01:02:10.121Z,0.00
2018-07-13T01:03:10.033Z,0.00
2018-07-13T01:04:10.069Z,0.00
2018-07-13T01:05:10.078Z,0.00
2018-07-13T01:06:10.087Z,0.00
2018-07-13T01:07:10.097Z,0.00
2018-07-13T01:08:10.082Z,0.00
2018-07-13T01:09:10.122Z,0.00
2018-07-13T01:10:10.128Z,0.00
2018-07-13T01:11:10.112Z,0.00
2018-07-13T01:12:10.282Z,0.00
2018-07-13T01:13:10.165Z,0.00
2018-07-13T01:14:10.143Z,0.00
2018-07-13T01:15:10.180Z,0.00
2018-07-13T01:16:10.164Z,0.00
2018-07-13T01:17:10.328Z,0.00
2018-07-13T01:18:10.191Z,0.00
2018-07-13T01:19:10.226Z,0.00
2018-07-13T01:20:10.219Z,0.00
2018-07-13T01:21:10.250Z,0.00
2018-07-13T01:22:10.415Z,0.00
2018-07-13T01:23:10.240Z,0.00
2018-07-13T01:24:10.252Z,0.00
2018-07-13T01:25:10.259Z,0.00
2018-07-13T01:26:10.298Z,0.00
2018-07-13T01:27:10.294Z,0.00
2018-07-13T01:28:10.439Z,0.00
2018-07-13T01:29:10.325Z,0.00
2018-07-13T01:30:10.338Z,0.00
2018-07-13T01:31:10.324Z,0.00
2018-07-13T01:32:10.341Z,0.00
2018-07-13T01:33:10.349Z,0.00
2018-07-13T01:34:10.480Z,0.00
2018-07-13T01:35:10.375Z,0.00
2018-07-13T01:36:10.374Z,0.00
2018-07-13T01:37:10.381Z,0.00
2018-07-13T01:38:10.415Z,0.00
2018-07-13T01:39:10.408Z,0.00
2018-07-13T01:40:10.441Z,0.00
2018-07-13T01:41:10.430Z,0.00
2018-07-13T01:42:10.458Z,0.00
2018-07-13T01:43:10.444Z,0.00
2018-07-13T01:44:10.604Z,0.00
2018-07-13T01:45:10.471Z,0.00
2018-07-13T01:46:10.473Z,0.00
2018-07-13T01:47:10.509Z,0.00
2018-07-13T01:48:10.496Z,0.00
2018-07-13T01:49:10.604Z,0.00
2018-07-13T01:50:10.541Z,0.00
2018-07-13T01:51:10.523Z,0.00
2018-07-13T01:52:10.559Z,0.00
2018-07-13T01:53:10.538Z,0.00
2018-07-13T01:54:10.651Z,0.00
2018-07-13T01:55:10.560Z,0.00
2018-07-13T01:56:10.579Z,0.00
2018-07-13T01:57:10.614Z,0.00
2018-07-13T01:58:10.602Z,0.00
2018-07-13T01:59:10.775Z,0.00
2018-07-13T02:00:10.643Z,0.00
2018-07-13T02:01:10.647Z,0.00
2018-07-13T02:02:10.653Z,0.00
2018-07-13T02:03:10.641Z,0.00
2018-07-13T02:04:10.828Z,0.00
2018-07-13T02:05:10.658Z,0.00
2018-07-13T02:06:10.698Z,0.00
2018-07-13T02:07:10.680Z,0.00
2018-07-13T02:09:09.575Z,0.00
2018-07-13T02:09:10.731Z,0.00
2018-07-13T02:10:10.740Z,0.00
2018-07-13T02:11:10.729Z,0.00
2018-07-13T02:12:10.759Z,0.00
2018-07-13T02:13:10.770Z,0.00
2018-07-13T02:14:10.748Z,0.00
2018-07-13T02:15:10.762Z,0.00
2018-07-13T02:16:10.788Z,0.00
2018-07-13T02:17:10.783Z,0.00
2018-07-13T02:18:10.797Z,0.00
2018-07-13T02:19:10.824Z,0.00
2018-07-13T02:20:47.049Z,0.00
2018-07-13T02:21:10.823Z,0.00
2018-07-13T02:22:10.857Z,0.00
2018-07-13T02:23:10.863Z,0.00
2018-07-13T02:24:10.852Z,0.00
2018-07-13T02:25:10.870Z,0.00
2018-07-13T02:26:10.890Z,0.00
2018-07-13T02:27:10.874Z,0.00
2018-07-13T02:28:10.886Z,0.00
2018-07-13T02:30:11.016Z,0.00
2018-07-13T02:31:47.161Z,0.00
2018-07-13T02:32:10.965Z,0.00
2018-07-13T02:33:10.934Z,0.00
2018-07-13T02:34:11.149Z,0.00
2018-07-13T02:35:11.121Z,0.00
2018-07-13T02:36:10.964Z,0.00
2018-07-13T02:37:10.985Z,0.00
2018-07-13T02:38:10.977Z,0.00
2018-07-13T02:39:11.036Z,0.00
2018-07-13T02:40:11.175Z,0.00
2018-07-13T02:41:11.025Z,0.00
2018-07-13T02:42:11.019Z,0.00
2018-07-13T02:43:11.033Z,0.00
2018-07-13T02:44:11.049Z,0.00
2018-07-13T02:45:11.209Z,0.00
2018-07-13T02:46:11.047Z,0.00
2018-07-13T02:47:11.067Z,0.00
2018-07-13T02:48:11.076Z,0.00
2018-07-13T02:49:11.084Z,0.00
2018-07-13T02:50:11.243Z,0.00
2018-07-13T02:51:11.321Z,0.00
2018-07-13T02:52:11.117Z,0.00
2018-07-13T02:53:11.146Z,0.00
2018-07-13T02:54:11.164Z,0.00
2018-07-13T02:55:11.289Z,0.00
2018-07-13T02:56:11.154Z,0.00
2018-07-13T02:57:11.187Z,0.00
2018-07-13T02:58:11.194Z,0.00
2018-07-13T02:59:11.189Z,0.00
2018-07-13T03:00:11.305Z,0.00
2018-07-13T03:01:11.220Z,0.00
2018-07-13T03:02:11.213Z,0.00
2018-07-13T03:03:11.219Z,0.00
2018-07-13T03:04:11.231Z,0.00
2018-07-13T03:05:11.433Z,0.00
2018-07-13T03:06:11.245Z,0.00
2018-07-13T03:07:11.252Z,0.00
2018-07-13T03:08:11.271Z,0.00
2018-07-13T03:09:11.283Z,0.00
2018-07-13T03:10:11.317Z,0.00
2018-07-13T03:11:11.465Z,0.00
2018-07-13T03:12:11.302Z,0.00
2018-07-13T03:13:11.337Z,0.00
2018-07-13T03:14:11.320Z,0.00
2018-07-13T03:15:11.354Z,0.00
2018-07-13T03:16:11.334Z,0.00
2018-07-13T03:17:11.513Z,0.00
2018-07-13T03:18:11.386Z,0.00
2018-07-13T03:19:11.389Z,0.00
2018-07-13T03:20:11.373Z,0.00
2018-07-13T03:21:11.380Z,0.00
2018-07-13T03:22:11.635Z,0.00
2018-07-13T03:23:11.407Z,0.00
2018-07-13T03:24:11.415Z,0.00
2018-07-13T03:25:11.444Z,0.00
2018-07-13T03:26:11.452Z,0.00
2018-07-13T03:27:11.596Z,0.00
2018-07-13T03:28:11.450Z,0.00
2018-07-13T03:29:11.472Z,0.00
2018-07-13T03:30:11.472Z,0.00
2018-07-13T03:31:11.497Z,0.00
2018-07-13T03:32:11.589Z,0.00
2018-07-13T03:33:11.498Z,0.00
2018-07-13T03:34:11.510Z,0.00
2018-07-13T03:35:11.513Z,0.00
2018-07-13T03:36:11.513Z,0.00
2018-07-13T03:37:11.683Z,0.00
2018-07-13T03:38:11.538Z,0.00
2018-07-13T03:39:11.545Z,0.00
2018-07-13T03:40:11.567Z,0.00
2018-07-13T03:41:11.590Z,0.00
2018-07-13T03:42:11.673Z,0.00
2018-07-13T03:43:11.577Z,0.00
2018-07-13T03:44:11.595Z,0.00
2018-07-13T03:45:11.633Z,0.00
2018-07-13T03:46:11.631Z,0.00
2018-07-13T03:47:11.769Z,0.00
2018-07-13T03:48:11.628Z,0.00
2018-07-13T03:49:11.644Z,0.00
2018-07-13T03:50:11.644Z,0.00
2018-07-13T03:51:11.689Z,0.00
2018-07-13T03:52:11.794Z,0.00
2018-07-13T03:53:11.674Z,0.00
2018-07-13T03:54:11.760Z,0.00
2018-07-13T03:55:11.697Z,0.00
2018-07-13T03:56:11.698Z,0.00
2018-07-13T03:57:11.742Z,0.00
2018-07-13T03:58:11.719Z,0.00
2018-07-13T03:59:11.732Z,0.00
2018-07-13T04:00:11.743Z,0.00
2018-07-13T04:01:11.775Z,0.00
2018-07-13T04:02:11.907Z,0.00
2018-07-13T04:03:11.761Z,0.00
2018-07-13T04:04:11.768Z,0.00
2018-07-13T04:05:11.790Z,0.00
2018-07-13T04:06:11.795Z,0.00
2018-07-13T04:07:11.990Z,0.00
2018-07-13T04:08:11.824Z,0.00
2018-07-13T04:09:11.846Z,0.00
2018-07-13T04:10:11.838Z,0.00
2018-07-13T04:11:11.861Z,0.00
2018-07-13T04:12:11.845Z,0.00
2018-07-13T04:13:11.860Z,0.00
2018-07-13T04:14:11.865Z,0.00
2018-07-13T04:15:11.895Z,0.00
2018-07-13T04:16:11.884Z,0.00
2018-07-13T04:17:11.996Z,0.00
2018-07-13T04:18:11.911Z,0.00
2018-07-13T04:19:11.920Z,0.00
2018-07-13T04:20:11.919Z,0.00
2018-07-13T04:21:11.957Z,0.00
2018-07-13T04:22:12.108Z,0.00
2018-07-13T04:23:11.968Z,0.00
2018-07-13T04:24:11.966Z,0.00
2018-07-13T04:25:11.963Z,0.00
2018-07-13T04:26:11.970Z,0.00
2018-07-13T04:27:12.090Z,0.00
2018-07-13T04:28:11.998Z,0.00
2018-07-13T04:29:12.022Z,0.00
2018-07-13T04:30:12.012Z,0.00
2018-07-13T04:31:12.024Z,0.00
2018-07-13T04:32:12.152Z,0.00
2018-07-13T04:33:12.031Z,0.00
2018-07-13T04:34:12.093Z,0.00
2018-07-13T04:35:12.077Z,0.00
2018-07-13T04:36:12.061Z,0.00
2018-07-13T04:37:12.169Z,0.00
2018-07-13T04:38:12.071Z,0.00
2018-07-13T04:39:12.089Z,0.00
2018-07-13T04:40:12.104Z,0.00
2018-07-13T04:41:12.219Z,0.00
2018-07-13T04:42:12.293Z,0.00
2018-07-13T04:43:12.156Z,0.00
2018-07-13T04:44:12.129Z,0.00
2018-07-13T04:45:12.172Z,0.00
2018-07-13T04:46:12.171Z,0.00
2018-07-13T04:47:12.284Z,0.00
2018-07-13T04:48:12.166Z,0.00
2018-07-13T04:49:12.201Z,0.00
2018-07-13T04:50:12.236Z,0.00
2018-07-13T04:51:12.218Z,0.00
2018-07-13T04:52:12.315Z,0.00
2018-07-13T04:53:12.216Z,0.00
2018-07-13T04:54:12.225Z,0.00
2018-07-13T04:55:12.228Z,0.00
2018-07-13T04:56:12.264Z,0.00
2018-07-13T04:57:12.377Z,0.00
2018-07-13T04:58:12.286Z,0.00
2018-07-13T04:59:12.290Z,0.00
2018-07-13T05:00:12.278Z,0.00
2018-07-13T05:01:12.297Z,0.00
2018-07-13T05:02:12.300Z,0.00
2018-07-13T05:03:12.452Z,0.00
2018-07-13T05:04:12.329Z,0.00
2018-07-13T05:05:12.327Z,0.00
2018-07-13T05:06:12.357Z,0.00
2018-07-13T05:07:12.342Z,0.00
2018-07-13T05:08:12.498Z,0.00
2018-07-13T05:09:12.388Z,0.00
2018-07-13T05:10:12.396Z,0.00
2018-07-13T05:11:12.385Z,0.00
2018-07-13T05:12:12.413Z,0.00
2018-07-13T05:13:12.571Z,0.00
2018-07-13T05:14:12.430Z,0.00
2018-07-13T05:15:12.414Z,0.00
2018-07-13T05:16:12.419Z,0.00
2018-07-13T05:17:12.463Z,0.00
2018-07-13T05:18:12.613Z,0.00
2018-07-13T05:19:12.443Z,0.00
2018-07-13T05:20:12.465Z,0.00
2018-07-13T05:21:12.524Z,0.00
2018-07-13T05:22:12.482Z,0.00
2018-07-13T05:23:12.616Z,0.00
2018-07-13T05:24:12.521Z,0.00
2018-07-13T05:25:12.505Z,0.00
2018-07-13T05:26:12.542Z,0.00
2018-07-13T05:27:12.548Z,0.00
2018-07-13T05:28:12.684Z,0.00
2018-07-13T05:29:12.542Z,0.00
2018-07-13T05:30:12.577Z,0.00
2018-07-13T05:31:12.587Z,0.00
2018-07-13T05:32:12.592Z,0.00
2018-07-13T05:33:12.727Z,0.00
2018-07-13T05:34:12.613Z,0.00
2018-07-13T05:35:12.624Z,0.00
2018-07-13T05:36:12.618Z,0.00
2018-07-13T05:37:12.630Z,0.00
2018-07-13T05:38:12.742Z,0.00
2018-07-13T05:39:12.630Z,0.00
2018-07-13T05:40:12.669Z,0.00
2018-07-13T05:41:12.667Z,0.00
2018-07-13T05:42:12.687Z,0.00
2018-07-13T05:43:12.694Z,0.00
2018-07-13T05:44:12.684Z,0.00
2018-07-13T05:45:12.716Z,0.00
2018-07-13T05:46:12.699Z,0.00
2018-07-13T05:47:12.732Z,0.00
2018-07-13T05:48:12.815Z,0.00
2018-07-13T05:49:12.736Z,0.00
2018-07-13T05:50:12.730Z,0.00
2018-07-13T05:51:12.747Z,0.00
2018-07-13T05:52:12.753Z,0.00
2018-07-13T05:53:12.792Z,0.00
2018-07-13T05:54:12.794Z,0.00
2018-07-13T05:55:12.792Z,0.00
2018-07-13T05:56:12.787Z,0.00
2018-07-13T05:57:12.795Z,0.00
2018-07-13T05:58:12.967Z,0.00
2018-07-13T05:59:12.816Z,0.00
2018-07-13T06:00:12.855Z,0.00
2018-07-13T06:01:12.844Z,0.00
2018-07-13T06:02:12.851Z,0.00
2018-07-13T06:03:13.010Z,0.00
2018-07-13T06:04:12.889Z,0.00
2018-07-13T06:05:12.877Z,0.00
2018-07-13T06:06:12.883Z,0.00
2018-07-13T06:07:12.915Z,0.00
2018-07-13T06:08:13.054Z,0.00
2018-07-13T06:09:12.909Z,0.00
2018-07-13T06:10:12.924Z,0.00
2018-07-13T06:11:12.929Z,0.00
2018-07-13T06:12:12.962Z,0.00
2018-07-13T06:13:13.050Z,0.00
2018-07-13T06:14:12.960Z,0.00
2018-07-13T06:15:12.965Z,0.00
2018-07-13T06:16:12.976Z,0.00
2018-07-13T06:17:12.988Z,0.00
2018-07-13T06:18:13.168Z,0.00
2018-07-13T06:19:13.010Z,0.00
2018-07-13T06:20:13.015Z,0.00
2018-07-13T06:21:13.050Z,0.00
2018-07-13T06:22:13.030Z,0.00
2018-07-13T06:23:13.193Z,0.00
2018-07-13T06:24:13.088Z,0.00
2018-07-13T06:25:13.056Z,0.00
2018-07-13T06:26:13.096Z,0.00
2018-07-13T06:27:13.087Z,0.00
2018-07-13T06:28:13.253Z,0.00
2018-07-13T06:29:13.107Z,0.00
2018-07-13T06:30:13.126Z,0.00
2018-07-13T06:31:13.142Z,0.00
2018-07-13T06:32:13.127Z,0.00
2018-07-13T06:33:13.284Z,0.00
2018-07-13T06:34:13.142Z,0.00
2018-07-13T06:35:13.152Z,0.00
2018-07-13T06:36:13.188Z,0.00
2018-07-13T06:37:13.171Z,0.00
2018-07-13T06:38:13.188Z,0.00
2018-07-13T06:39:13.290Z,0.00
2018-07-13T06:40:13.214Z,0.00
2018-07-13T06:41:13.205Z,0.00
2018-07-13T06:42:13.215Z,0.00
2018-07-13T06:43:13.232Z,0.00
2018-07-13T06:44:13.236Z,0.00
2018-07-13T06:45:13.353Z,0.00
2018-07-13T06:46:13.253Z,0.00
2018-07-13T06:47:13.263Z,0.00
2018-07-13T06:48:13.290Z,0.00
2018-07-13T06:49:13.296Z,0.00
2018-07-13T06:50:13.304Z,0.00
2018-07-13T06:51:13.467Z,0.00
2018-07-13T06:52:13.324Z,0.00
2018-07-13T06:53:13.323Z,0.00
2018-07-13T06:54:13.331Z,0.00
2018-07-13T06:55:13.342Z,0.00
2018-07-13T06:56:13.457Z,0.00
2018-07-13T06:57:13.373Z,0.00
2018-07-13T06:58:13.377Z,0.00
2018-07-13T06:59:13.392Z,0.00
2018-07-13T07:00:13.403Z,0.00
2018-07-13T07:01:13.543Z,0.00
2018-07-13T07:02:13.420Z,0.00
2018-07-13T07:03:13.410Z,0.00
2018-07-13T07:04:13.444Z,0.00
2018-07-13T07:05:13.430Z,0.00
2018-07-13T07:06:13.446Z,0.00
2018-07-13T07:07:13.448Z,0.00
2018-07-13T07:08:13.480Z,0.00
2018-07-13T07:09:13.465Z,0.00
2018-07-13T07:10:13.480Z,0.00
2018-07-13T07:11:13.519Z,0.00
2018-07-13T07:12:13.510Z,0.00
2018-07-13T07:13:13.523Z,0.00
2018-07-13T07:14:13.523Z,0.00
2018-07-13T07:15:13.521Z,0.00
2018-07-13T07:16:13.650Z,0.00
2018-07-13T07:17:13.559Z,0.00
2018-07-13T07:18:13.560Z,0.00
2018-07-13T07:19:13.575Z,0.00
2018-07-13T07:20:13.589Z,0.00
2018-07-13T07:21:13.744Z,0.00
2018-07-13T07:22:13.603Z,0.00
2018-07-13T07:23:13.612Z,0.00
2018-07-13T07:24:13.607Z,0.00
2018-07-13T07:25:13.628Z,0.00
2018-07-13T07:26:13.787Z,0.00
2018-07-13T07:27:13.653Z,0.00
2018-07-13T07:28:13.660Z,0.00
2018-07-13T07:29:13.667Z,0.00
2018-07-13T07:30:13.678Z,0.00
2018-07-13T07:31:13.790Z,0.00
2018-07-13T07:32:13.697Z,0.00
2018-07-13T07:33:13.691Z,0.00
2018-07-13T07:34:13.711Z,0.00
2018-07-13T07:35:13.728Z,0.00
2018-07-13T07:36:13.878Z,0.00
2018-07-13T07:37:13.744Z,0.00
2018-07-13T07:38:13.747Z,0.00
2018-07-13T07:39:13.762Z,0.00
2018-07-13T07:40:59.714Z,0.00
2018-07-13T07:41:13.884Z,0.00
2018-07-13T07:42:13.789Z,0.00
2018-07-13T07:43:13.802Z,0.00
2018-07-13T07:44:13.815Z,0.00
2018-07-13T07:45:13.795Z,0.00
2018-07-13T07:46:13.975Z,0.00
2018-07-13T07:47:13.838Z,0.00
2018-07-13T07:48:13.843Z,0.00
2018-07-13T07:49:13.853Z,0.00
2018-07-13T07:50:13.863Z,0.00
2018-07-13T07:51:13.975Z,0.00
2018-07-13T07:52:13.883Z,0.00
2018-07-13T07:53:13.892Z,0.00
2018-07-13T07:54:13.898Z,0.00
2018-07-13T07:55:13.914Z,0.00
2018-07-13T07:56:13.918Z,0.00
2018-07-13T07:57:13.924Z,0.00
2018-07-13T07:58:13.940Z,0.00
2018-07-13T07:59:13.946Z,0.00
2018-07-13T08:00:13.952Z,0.00
2018-07-13T08:01:14.118Z,0.00
2018-07-13T08:02:13.973Z,0.00
2018-07-13T08:03:13.991Z,0.00
2018-07-13T08:04:13.991Z,0.00
2018-07-13T08:05:13.996Z,0.00
2018-07-13T08:06:14.063Z,0.00
2018-07-13T08:07:14.275Z,0.00
2018-07-13T08:08:14.020Z,0.00
2018-07-13T08:09:14.036Z,0.00
2018-07-13T08:10:14.043Z,0.00
2018-07-13T08:11:14.203Z,0.00
2018-07-13T08:12:14.047Z,0.00
2018-07-13T08:13:14.057Z,0.00
2018-07-13T08:14:14.371Z,0.00
2018-07-13T08:15:14.086Z,0.00
2018-07-13T08:16:14.210Z,0.00
2018-07-13T08:17:14.107Z,0.00
2018-07-13T08:18:14.112Z,0.00
2018-07-13T08:19:14.128Z,0.00
2018-07-13T08:20:14.132Z,0.00
2018-07-13T08:21:14.284Z,0.00
2018-07-13T08:22:14.138Z,0.00
2018-07-13T08:23:14.164Z,0.00
2018-07-13T08:24:14.171Z,0.00
2018-07-13T08:25:14.159Z,0.00
2018-07-13T08:26:14.182Z,0.00
2018-07-13T08:27:14.344Z,0.00
2018-07-13T08:28:14.202Z,0.00
2018-07-13T08:29:14.216Z,0.00
2018-07-13T08:30:14.225Z,0.00
2018-07-13T08:31:14.233Z,0.00
2018-07-13T08:32:14.235Z,0.00
2018-07-13T08:33:14.405Z,0.00
2018-07-13T08:34:14.256Z,0.00
2018-07-13T08:35:14.262Z,0.00
2018-07-13T08:36:14.275Z,0.00
2018-07-13T08:37:14.287Z,0.00
2018-07-13T08:38:14.451Z,0.00
2018-07-13T08:39:14.306Z,0.00
2018-07-13T08:40:14.310Z,0.00
2018-07-13T08:41:14.310Z,0.00
2018-07-13T08:42:14.323Z,0.00
2018-07-13T08:43:14.490Z,0.00
2018-07-13T08:44:14.346Z,0.00
2018-07-13T08:45:14.422Z,0.00
2018-07-13T08:46:14.364Z,0.00
2018-07-13T08:47:14.366Z,0.00
2018-07-13T08:48:14.522Z,0.00
2018-07-13T08:49:14.388Z,0.00
2018-07-13T08:50:14.421Z,0.00
2018-07-13T08:51:14.472Z,0.00
2018-07-13T08:52:14.414Z,0.00
2018-07-13T08:53:14.559Z,0.00
2018-07-13T08:54:14.430Z,0.00
2018-07-13T08:55:14.437Z,0.00
2018-07-13T08:56:14.545Z,0.00
2018-07-13T08:57:14.444Z,0.00
2018-07-13T08:58:14.602Z,0.00
2018-07-13T08:59:14.461Z,0.00
2018-07-13T09:00:14.488Z,0.00
2018-07-13T09:01:14.493Z,0.00
2018-07-13T09:02:14.503Z,0.00
2018-07-13T09:03:14.617Z,0.00
2018-07-13T09:04:14.559Z,0.00
2018-07-13T09:05:14.530Z,0.00
2018-07-13T09:06:14.541Z,0.00
2018-07-13T09:07:14.544Z,0.00
2018-07-13T09:08:14.651Z,0.00
2018-07-13T09:09:14.559Z,0.00
2018-07-13T09:10:14.573Z,0.00
2018-07-13T09:11:14.579Z,0.00
2018-07-13T09:12:14.588Z,0.00
2018-07-13T09:13:14.748Z,0.00
2018-07-13T09:14:14.605Z,0.00
2018-07-13T09:15:14.614Z,0.00
2018-07-13T09:16:14.626Z,0.00
2018-07-13T09:17:14.618Z,0.00
2018-07-13T09:18:14.869Z,0.00
2018-07-13T09:19:14.650Z,0.00
2018-07-13T09:20:14.662Z,0.00
2018-07-13T09:21:14.668Z,0.00
2018-07-13T09:22:14.676Z,0.00
2018-07-13T09:23:14.786Z,0.00
2018-07-13T09:24:14.802Z,0.00
2018-07-13T09:25:14.711Z,0.00
2018-07-13T09:26:14.714Z,0.00
2018-07-13T09:27:14.717Z,0.00
2018-07-13T09:28:14.832Z,0.00
2018-07-13T09:29:14.722Z,0.00
2018-07-13T09:30:14.733Z,0.00
2018-07-13T09:31:14.780Z,0.00
2018-07-13T09:32:14.762Z,0.00
2018-07-13T09:33:14.928Z,0.00
2018-07-13T09:34:14.781Z,0.00
2018-07-13T09:35:14.794Z,0.00
2018-07-13T09:36:14.803Z,0.00
2018-07-13T09:37:14.808Z,0.00
2018-07-13T09:38:15.025Z,0.00
2018-07-13T09:39:14.829Z,0.00
2018-07-13T09:40:14.834Z,0.00
2018-07-13T09:41:14.842Z,0.00
2018-07-13T09:42:14.850Z,0.00
2018-07-13T09:43:15.018Z,0.00
2018-07-13T09:44:14.871Z,0.00
2018-07-13T09:45:14.882Z,0.00
2018-07-13T09:46:14.885Z,0.00
2018-07-13T09:47:14.900Z,0.00
2018-07-13T09:48:15.003Z,0.00
2018-07-13T09:49:14.918Z,0.00
2018-07-13T09:50:14.931Z,0.00
2018-07-13T09:51:14.956Z,0.00
2018-07-13T09:52:14.941Z,0.00
2018-07-13T09:53:15.052Z,0.00
2018-07-13T09:54:15.032Z,0.00
2018-07-13T09:55:14.972Z,0.00
2018-07-13T09:56:14.980Z,0.00
2018-07-13T09:57:14.985Z,0.00
2018-07-13T09:58:15.139Z,0.00
2018-07-13T09:59:15.009Z,0.00
2018-07-13T10:00:15.007Z,0.00
2018-07-13T10:01:15.024Z,0.00
2018-07-13T10:02:15.031Z,0.00
2018-07-13T10:03:15.145Z,0.00
2018-07-13T10:04:15.056Z,0.00
2018-07-13T10:05:15.061Z,0.00
2018-07-13T10:06:15.066Z,5.63
2018-07-13T10:07:15.076Z,5.63
2018-07-13T10:08:15.238Z,5.63
2018-07-13T10:09:15.094Z,5.63
2018-07-13T10:10:15.109Z,5.63
2018-07-13T10:11:15.093Z,0.00
2018-07-13T10:12:15.128Z,5.63
2018-07-13T10:13:15.282Z,5.63
2018-07-13T10:14:15.145Z,5.63
2018-07-13T10:15:15.148Z,5.63
2018-07-13T10:16:15.159Z,5.63
2018-07-13T10:17:15.161Z,5.63
2018-07-13T10:18:15.179Z,5.63
2018-07-13T10:19:15.325Z,5.63
2018-07-13T10:20:15.197Z,11.25
2018-07-13T10:21:15.203Z,11.25
2018-07-13T10:22:15.209Z,11.25
2018-07-13T10:23:15.222Z,11.25
2018-07-13T10:24:15.229Z,11.25
2018-07-13T10:25:15.334Z,11.25
2018-07-13T10:26:15.246Z,16.88
2018-07-13T10:27:15.252Z,16.88
2018-07-13T10:28:15.261Z,16.88
2018-07-13T10:29:15.277Z,16.88
2018-07-13T10:30:15.397Z,22.50
2018-07-13T10:31:15.295Z,28.13
2018-07-13T10:32:15.298Z,22.50
2018-07-13T10:33:15.301Z,16.88
2018-07-13T10:34:15.318Z,16.88
2018-07-13T10:35:15.428Z,16.88
2018-07-13T10:36:15.336Z,16.88
2018-07-13T10:37:15.349Z,16.88
2018-07-13T10:38:15.355Z,11.25
2018-07-13T10:39:15.349Z,16.88
2018-07-13T10:40:15.523Z,16.88
2018-07-13T10:41:15.386Z,22.50
2018-07-13T10:42:15.390Z,22.50
2018-07-13T10:43:15.406Z,16.88
2018-07-13T10:44:15.407Z,16.88
2018-07-13T10:45:15.569Z,16.88
2018-07-13T10:46:15.412Z,16.88
2018-07-13T10:47:15.427Z,16.88
2018-07-13T10:48:15.444Z,11.25
2018-07-13T10:49:15.452Z,16.88
2018-07-13T10:50:15.613Z,28.13
2018-07-13T10:51:15.478Z,28.13
2018-07-13T10:52:15.488Z,28.13
2018-07-13T10:53:15.495Z,33.75
2018-07-13T10:54:15.500Z,28.13
2018-07-13T10:55:15.613Z,28.13
2018-07-13T10:56:15.520Z,28.13
2018-07-13T10:57:15.536Z,39.38
2018-07-13T10:58:15.540Z,39.38
2018-07-13T10:59:15.546Z,33.75
2018-07-13T11:00:15.709Z,28.13
2018-07-13T11:01:15.564Z,28.13
2018-07-13T11:02:15.574Z,33.75
2018-07-13T11:03:15.582Z,33.75
2018-07-13T11:04:15.599Z,33.75
2018-07-13T11:05:15.703Z,33.75
2018-07-13T11:06:15.610Z,33.75
2018-07-13T11:07:15.620Z,33.75
2018-07-13T11:08:15.624Z,33.75
2018-07-13T11:09:15.643Z,28.13
2018-07-13T11:10:15.749Z,28.13
2018-07-13T11:11:15.659Z,28.13
2018-07-13T11:12:15.653Z,33.75
2018-07-13T11:13:15.674Z,33.75
2018-07-13T11:14:15.685Z,33.75
2018-07-13T11:15:15.795Z,33.75
2018-07-13T11:16:15.706Z,33.75
2018-07-13T11:17:15.714Z,33.75
2018-07-13T11:18:15.725Z,33.75
2018-07-13T11:19:15.734Z,39.38
2018-07-13T11:20:15.888Z,45.00
2018-07-13T11:21:15.753Z,45.00
2018-07-13T11:22:15.761Z,45.00
2018-07-13T11:23:15.763Z,39.38
2018-07-13T11:24:15.857Z,45.00
2018-07-13T11:25:15.790Z,50.63
2018-07-13T11:26:15.783Z,56.25
2018-07-13T11:27:15.803Z,61.88
2018-07-13T11:28:15.815Z,61.88
2018-07-13T11:29:15.827Z,61.88
2018-07-13T11:30:15.834Z,61.88
2018-07-13T11:31:15.846Z,73.13
2018-07-13T11:32:15.858Z,78.75
2018-07-13T11:33:15.864Z,78.75
2018-07-13T11:34:15.875Z,73.13
2018-07-13T11:35:16.030Z,61.88
2018-07-13T11:36:15.882Z,61.88
2018-07-13T11:37:15.974Z,73.13
2018-07-13T11:38:15.910Z,90.00
2018-07-13T11:39:15.922Z,90.00
2018-07-13T11:40:16.083Z,95.63
2018-07-13T11:41:15.940Z,112.50
2018-07-13T11:42:16.003Z,118.13
2018-07-13T11:43:15.953Z,135.00
2018-07-13T11:44:16.082Z,135.00
2018-07-13T11:45:16.129Z,151.88
2018-07-13T11:46:15.988Z,168.75
2018-07-13T11:47:15.988Z,151.88
2018-07-13T11:48:16.008Z,129.38
2018-07-13T11:49:16.026Z,112.50
2018-07-13T11:50:16.032Z,101.25
2018-07-13T11:51:16.025Z,112.50
2018-07-13T11:52:16.103Z,146.25
2018-07-13T11:53:16.066Z,208.13
2018-07-13T11:54:16.069Z,270.00
2018-07-13T11:55:16.221Z,292.50
2018-07-13T11:56:16.096Z,286.88
2018-07-13T11:57:16.100Z,281.25
2018-07-13T11:58:16.115Z,275.63
2018-07-13T11:59:16.114Z,264.38
2018-07-13T12:00:16.130Z,286.88
2018-07-13T12:01:16.289Z,286.88
2018-07-13T12:02:16.148Z,270.00
2018-07-13T12:03:16.162Z,298.13
2018-07-13T12:04:16.167Z,315.00
2018-07-13T12:05:16.188Z,393.75
2018-07-13T12:06:16.191Z,365.63
2018-07-13T12:07:16.356Z,320.63
2018-07-13T12:08:16.213Z,331.88
2018-07-13T12:09:16.229Z,365.63
2018-07-13T12:10:16.233Z,399.38
2018-07-13T12:11:16.244Z,337.50
2018-07-13T12:12:16.363Z,281.25
2018-07-13T12:13:16.268Z,247.50
2018-07-13T12:14:16.291Z,264.38
2018-07-13T12:15:16.288Z,281.25
2018-07-13T12:16:16.288Z,320.63
2018-07-13T12:17:16.501Z,326.25
2018-07-13T12:18:16.322Z,298.13
2018-07-13T12:19:16.338Z,247.50
2018-07-13T12:20:16.344Z,303.75
2018-07-13T12:21:16.353Z,320.63
2018-07-13T12:22:16.516Z,354.38
2018-07-13T12:23:16.378Z,405.00
2018-07-13T12:24:16.383Z,461.25
2018-07-13T12:25:16.409Z,455.63
2018-07-13T12:26:16.410Z,618.75
2018-07-13T12:27:16.532Z,635.63
2018-07-13T12:28:16.444Z,753.75
2018-07-13T12:29:16.442Z,691.88
2018-07-13T12:30:16.457Z,646.88
2018-07-13T12:31:16.469Z,652.50
2018-07-13T12:32:16.676Z,590.63
2018-07-13T12:33:16.478Z,703.13
2018-07-13T12:34:16.500Z,579.38
2018-07-13T12:35:16.513Z,573.75
2018-07-13T12:36:16.527Z,568.13
2018-07-13T12:37:16.692Z,523.13
2018-07-13T12:38:16.558Z,601.88
2018-07-13T12:39:16.568Z,517.50
2018-07-13T12:40:16.577Z,556.88
2018-07-13T12:41:16.590Z,495.00
2018-07-13T12:42:16.762Z,421.88
2018-07-13T12:43:16.623Z,438.75
2018-07-13T12:44:16.618Z,433.13
2018-07-13T12:45:16.647Z,455.63
2018-07-13T12:46:16.662Z,573.75
2018-07-13T12:47:16.771Z,607.50
2018-07-13T12:48:16.685Z,641.25
2018-07-13T12:49:16.705Z,590.63
2018-07-13T12:50:16.710Z,641.25
2018-07-13T12:51:16.728Z,714.38
2018-07-13T12:52:16.886Z,635.63
2018-07-13T12:53:16.757Z,573.75
2018-07-13T12:54:16.890Z,427.50
2018-07-13T12:55:16.784Z,382.50
2018-07-13T12:56:16.804Z,421.88
2018-07-13T12:57:16.962Z,523.13
2018-07-13T12:58:16.820Z,658.13
2018-07-13T12:59:16.839Z,506.25
2018-07-13T13:00:16.854Z,534.38
2018-07-13T13:01:16.870Z,585.00
2018-07-13T13:02:16.881Z,635.63
2018-07-13T13:03:16.904Z,703.13
2018-07-13T13:04:16.910Z,781.88
2018-07-13T13:05:16.924Z,731.25
2018-07-13T13:06:16.942Z,675.00
2018-07-13T13:07:17.106Z,630.00
2018-07-13T13:08:16.955Z,703.13
2018-07-13T13:09:16.982Z,776.25
2018-07-13T13:10:17.019Z,838.13